sensor_id;sensor_type;location;lat;lon;timestamp;temperature;humidity
820;DHT22;392;48.838;2.322;2023-06-26T00:02:23;25.40;23.70
820;DHT22;392;48.838;2.322;2023-06-26T00:04:50;25.30;23.90
820;DHT22;392;48.838;2.322;2023-06-26T00:07:19;25.40;24.00
820;DHT22;392;48.838;2.322;2023-06-26T00:09:46;25.30;23.70
820;DHT22;392;48.838;2.322;2023-06-26T00:12:14;25.30;24.30
820;DHT22;392;48.838;2.322;2023-06-26T00:14:41;25.40;23.70
820;DHT22;392;48.838;2.322;2023-06-26T00:17:09;25.30;23.70
820;DHT22;392;48.838;2.322;2023-06-26T00:19:38;25.20;23.50
820;DHT22;392;48.838;2.322;2023-06-26T00:22:05;25.20;24.00
820;DHT22;392;48.838;2.322;2023-06-26T00:27:00;25.20;23.30
820;DHT22;392;48.838;2.322;2023-06-26T00:29:28;25.10;24.20
820;DHT22;392;48.838;2.322;2023-06-26T00:31:57;25.20;23.10
820;DHT22;392;48.838;2.322;2023-06-26T00:34:25;25.10;22.80
820;DHT22;392;48.838;2.322;2023-06-26T00:36:52;24.80;23.30
820;DHT22;392;48.838;2.322;2023-06-26T00:39:20;24.60;23.50
820;DHT22;392;48.838;2.322;2023-06-26T00:41:47;24.40;23.60
820;DHT22;392;48.838;2.322;2023-06-26T00:44:14;24.30;24.20
820;DHT22;392;48.838;2.322;2023-06-26T00:46:42;24.10;24.40
820;DHT22;392;48.838;2.322;2023-06-26T00:49:11;24.00;24.70
820;DHT22;392;48.838;2.322;2023-06-26T00:51:40;23.90;24.90
820;DHT22;392;48.838;2.322;2023-06-26T00:54:07;23.80;25.20
820;DHT22;392;48.838;2.322;2023-06-26T00:56:35;23.70;26.40
820;DHT22;392;48.838;2.322;2023-06-26T00:59:05;23.70;26.20
820;DHT22;392;48.838;2.322;2023-06-26T01:01:32;23.60;26.30
820;DHT22;392;48.838;2.322;2023-06-26T01:04:00;23.50;26.60
820;DHT22;392;48.838;2.322;2023-06-26T01:06:30;23.40;27.00
820;DHT22;392;48.838;2.322;2023-06-26T01:09:02;23.40;27.50
820;DHT22;392;48.838;2.322;2023-06-26T01:11:31;23.30;28.00
820;DHT22;392;48.838;2.322;2023-06-26T01:14:00;23.20;28.20
820;DHT22;392;48.838;2.322;2023-06-26T01:16:29;23.20;28.40
820;DHT22;392;48.838;2.322;2023-06-26T01:18:57;23.20;28.60
820;DHT22;392;48.838;2.322;2023-06-26T01:21:26;23.10;29.00
820;DHT22;392;48.838;2.322;2023-06-26T01:24:05;23.00;29.50
820;DHT22;392;48.838;2.322;2023-06-26T01:26:36;23.00;29.90
820;DHT22;392;48.838;2.322;2023-06-26T01:29:07;22.90;30.00
820;DHT22;392;48.838;2.322;2023-06-26T01:31:38;22.90;30.80
820;DHT22;392;48.838;2.322;2023-06-26T01:36:34;23.60;29.20
820;DHT22;392;48.838;2.322;2023-06-26T01:39:05;23.90;27.80
820;DHT22;392;48.838;2.322;2023-06-26T01:41:35;24.10;27.40
820;DHT22;392;48.838;2.322;2023-06-26T01:44:16;24.30;27.10
820;DHT22;392;48.838;2.322;2023-06-26T01:46:54;24.40;26.30
820;DHT22;392;48.838;2.322;2023-06-26T01:49:32;24.50;25.80
820;DHT22;392;48.838;2.322;2023-06-26T01:52:11;24.50;25.60
820;DHT22;392;48.838;2.322;2023-06-26T01:54:57;24.50;25.60
820;DHT22;392;48.838;2.322;2023-06-26T01:57:30;24.40;25.60
820;DHT22;392;48.838;2.322;2023-06-26T01:59:59;24.50;25.40
820;DHT22;392;48.838;2.322;2023-06-26T02:02:29;24.60;25.30
820;DHT22;392;48.838;2.322;2023-06-26T02:04:57;24.60;24.50
820;DHT22;392;48.838;2.322;2023-06-26T02:07:24;24.60;24.70
820;DHT22;392;48.838;2.322;2023-06-26T02:09:51;24.60;24.40
820;DHT22;392;48.838;2.322;2023-06-26T02:12:19;24.60;23.70
820;DHT22;392;48.838;2.322;2023-06-26T02:14:47;24.60;24.00
820;DHT22;392;48.838;2.322;2023-06-26T02:17:23;24.50;23.90
820;DHT22;392;48.838;2.322;2023-06-26T02:19:54;24.40;23.80
820;DHT22;392;48.838;2.322;2023-06-26T02:22:22;24.30;23.50
820;DHT22;392;48.838;2.322;2023-06-26T02:24:49;24.20;23.00
820;DHT22;392;48.838;2.322;2023-06-26T02:27:17;24.10;23.20
820;DHT22;392;48.838;2.322;2023-06-26T02:29:44;24.10;23.40
820;DHT22;392;48.838;2.322;2023-06-26T02:32:13;24.10;23.70
820;DHT22;392;48.838;2.322;2023-06-26T02:34:41;24.10;24.10
820;DHT22;392;48.838;2.322;2023-06-26T02:37:08;24.10;23.50
820;DHT22;392;48.838;2.322;2023-06-26T02:39:36;24.20;23.50
820;DHT22;392;48.838;2.322;2023-06-26T02:42:04;24.20;23.20
820;DHT22;392;48.838;2.322;2023-06-26T02:44:32;24.30;23.00
820;DHT22;392;48.838;2.322;2023-06-26T02:46:59;24.30;22.80
820;DHT22;392;48.838;2.322;2023-06-26T02:49:29;24.30;22.80
820;DHT22;392;48.838;2.322;2023-06-26T02:51:56;24.30;22.80
820;DHT22;392;48.838;2.322;2023-06-26T02:54:26;23.90;22.90
820;DHT22;392;48.838;2.322;2023-06-26T02:56:59;23.80;23.80
820;DHT22;392;48.838;2.322;2023-06-26T02:59:29;23.90;22.40
820;DHT22;392;48.838;2.322;2023-06-26T03:01:57;23.80;22.80
820;DHT22;392;48.838;2.322;2023-06-26T03:04:32;23.40;22.70
820;DHT22;392;48.838;2.322;2023-06-26T03:07:04;23.20;24.80
820;DHT22;392;48.838;2.322;2023-06-26T03:09:31;23.30;24.00
820;DHT22;392;48.838;2.322;2023-06-26T03:11:59;23.40;25.00
820;DHT22;392;48.838;2.322;2023-06-26T03:14:26;23.70;24.40
820;DHT22;392;48.838;2.322;2023-06-26T03:16:54;23.90;23.80
820;DHT22;392;48.838;2.322;2023-06-26T03:19:24;24.00;23.40
820;DHT22;392;48.838;2.322;2023-06-26T03:22:14;24.10;22.40
820;DHT22;392;48.838;2.322;2023-06-26T03:24:44;24.20;22.90
820;DHT22;392;48.838;2.322;2023-06-26T03:27:11;24.10;22.80
820;DHT22;392;48.838;2.322;2023-06-26T03:29:39;24.10;22.70
820;DHT22;392;48.838;2.322;2023-06-26T03:32:07;24.10;22.80
820;DHT22;392;48.838;2.322;2023-06-26T03:34:35;24.00;22.70
820;DHT22;392;48.838;2.322;2023-06-26T03:37:05;24.00;22.70
820;DHT22;392;48.838;2.322;2023-06-26T03:39:34;24.00;22.30
820;DHT22;392;48.838;2.322;2023-06-26T03:42:02;23.90;23.10
820;DHT22;392;48.838;2.322;2023-06-26T03:44:30;23.80;23.40
820;DHT22;392;48.838;2.322;2023-06-26T03:46:57;23.80;23.60
820;DHT22;392;48.838;2.322;2023-06-26T03:49:25;23.90;23.30
820;DHT22;392;48.838;2.322;2023-06-26T03:51:53;23.90;23.30
820;DHT22;392;48.838;2.322;2023-06-26T03:54:22;23.80;23.30
820;DHT22;392;48.838;2.322;2023-06-26T03:56:50;23.80;23.00
820;DHT22;392;48.838;2.322;2023-06-26T03:59:18;23.80;23.50
820;DHT22;392;48.838;2.322;2023-06-26T04:01:45;23.80;23.60
820;DHT22;392;48.838;2.322;2023-06-26T04:04:13;23.80;23.60
820;DHT22;392;48.838;2.322;2023-06-26T04:06:41;23.80;23.40
820;DHT22;392;48.838;2.322;2023-06-26T04:09:08;23.80;23.20
820;DHT22;392;48.838;2.322;2023-06-26T04:11:35;23.80;23.20
820;DHT22;392;48.838;2.322;2023-06-26T04:14:04;23.80;23.20
820;DHT22;392;48.838;2.322;2023-06-26T04:16:31;23.70;23.50
820;DHT22;392;48.838;2.322;2023-06-26T04:18:58;23.70;23.50
820;DHT22;392;48.838;2.322;2023-06-26T04:21:28;23.70;23.80
820;DHT22;392;48.838;2.322;2023-06-26T04:23:55;23.60;23.90
820;DHT22;392;48.838;2.322;2023-06-26T04:26:23;23.60;23.80
820;DHT22;392;48.838;2.322;2023-06-26T04:28:50;23.70;23.90
820;DHT22;392;48.838;2.322;2023-06-26T04:31:19;23.60;23.90
820;DHT22;392;48.838;2.322;2023-06-26T04:33:47;23.60;24.30
820;DHT22;392;48.838;2.322;2023-06-26T04:36:16;23.60;24.20
820;DHT22;392;48.838;2.322;2023-06-26T04:38:44;23.60;24.80
820;DHT22;392;48.838;2.322;2023-06-26T04:41:11;23.60;24.30
820;DHT22;392;48.838;2.322;2023-06-26T04:43:38;23.50;24.30
820;DHT22;392;48.838;2.322;2023-06-26T04:46:06;23.50;24.40
820;DHT22;392;48.838;2.322;2023-06-26T04:48:34;23.50;24.30
820;DHT22;392;48.838;2.322;2023-06-26T04:53:29;23.50;24.00
820;DHT22;392;48.838;2.322;2023-06-26T04:55:59;23.40;24.40
820;DHT22;392;48.838;2.322;2023-06-26T04:58:26;23.50;24.50
820;DHT22;392;48.838;2.322;2023-06-26T05:00:54;23.40;24.30
820;DHT22;392;48.838;2.322;2023-06-26T05:03:22;23.40;24.40
820;DHT22;392;48.838;2.322;2023-06-26T05:05:50;23.30;24.70
820;DHT22;392;48.838;2.322;2023-06-26T05:08:21;23.30;24.70
820;DHT22;392;48.838;2.322;2023-06-26T05:10:49;23.30;24.80
820;DHT22;392;48.838;2.322;2023-06-26T05:13:19;23.30;24.80
820;DHT22;392;48.838;2.322;2023-06-26T05:15:46;23.30;25.00
820;DHT22;392;48.838;2.322;2023-06-26T05:18:15;23.30;24.90
820;DHT22;392;48.838;2.322;2023-06-26T05:20:43;23.40;24.70
820;DHT22;392;48.838;2.322;2023-06-26T05:23:12;23.40;24.50
820;DHT22;392;48.838;2.322;2023-06-26T05:25:40;23.40;24.60
820;DHT22;392;48.838;2.322;2023-06-26T05:28:09;23.40;24.30
820;DHT22;392;48.838;2.322;2023-06-26T05:33:06;23.50;24.20
820;DHT22;392;48.838;2.322;2023-06-26T05:35:34;23.50;24.50
820;DHT22;392;48.838;2.322;2023-06-26T05:38:03;23.50;23.70
820;DHT22;392;48.838;2.322;2023-06-26T05:40:33;23.50;24.80
820;DHT22;392;48.838;2.322;2023-06-26T05:43:01;23.40;24.50
820;DHT22;392;48.838;2.322;2023-06-26T05:45:29;23.30;25.10
820;DHT22;392;48.838;2.322;2023-06-26T05:47:56;23.40;25.30
820;DHT22;392;48.838;2.322;2023-06-26T05:50:24;23.60;24.80
820;DHT22;392;48.838;2.322;2023-06-26T05:52:52;23.80;24.30
820;DHT22;392;48.838;2.322;2023-06-26T05:55:21;23.60;24.10
820;DHT22;392;48.838;2.322;2023-06-26T05:57:51;23.60;24.70
820;DHT22;392;48.838;2.322;2023-06-26T06:00:19;23.70;24.00
820;DHT22;392;48.838;2.322;2023-06-26T06:02:47;23.80;24.30
820;DHT22;392;48.838;2.322;2023-06-26T06:05:14;23.90;24.20
820;DHT22;392;48.838;2.322;2023-06-26T06:07:41;24.10;22.80
820;DHT22;392;48.838;2.322;2023-06-26T06:10:09;24.10;23.30
820;DHT22;392;48.838;2.322;2023-06-26T06:12:37;24.40;22.60
820;DHT22;392;48.838;2.322;2023-06-26T06:15:06;24.50;22.50
820;DHT22;392;48.838;2.322;2023-06-26T06:17:34;24.50;22.10
820;DHT22;392;48.838;2.322;2023-06-26T06:20:01;24.50;21.90
820;DHT22;392;48.838;2.322;2023-06-26T06:22:30;24.60;21.70
820;DHT22;392;48.838;2.322;2023-06-26T06:24:57;24.60;21.30
820;DHT22;392;48.838;2.322;2023-06-26T06:27:24;24.50;21.30
820;DHT22;392;48.838;2.322;2023-06-26T06:29:52;24.50;21.10
820;DHT22;392;48.838;2.322;2023-06-26T06:32:20;24.40;21.10
820;DHT22;392;48.838;2.322;2023-06-26T06:34:48;24.40;21.30
820;DHT22;392;48.838;2.322;2023-06-26T06:37:15;24.40;21.00
820;DHT22;392;48.838;2.322;2023-06-26T06:39:43;24.60;21.10
820;DHT22;392;48.838;2.322;2023-06-26T06:42:10;24.80;20.40
820;DHT22;392;48.838;2.322;2023-06-26T06:44:37;24.90;19.90
820;DHT22;392;48.838;2.322;2023-06-26T06:47:05;24.80;20.20
820;DHT22;392;48.838;2.322;2023-06-26T06:49:33;24.90;19.90
820;DHT22;392;48.838;2.322;2023-06-26T06:52:01;24.90;19.70
820;DHT22;392;48.838;2.322;2023-06-26T06:54:28;24.60;20.50
820;DHT22;392;48.838;2.322;2023-06-26T06:56:55;24.40;21.20
820;DHT22;392;48.838;2.322;2023-06-26T06:59:23;24.30;21.40
820;DHT22;392;48.838;2.322;2023-06-26T07:01:50;24.10;22.00
820;DHT22;392;48.838;2.322;2023-06-26T07:04:17;24.20;21.10
820;DHT22;392;48.838;2.322;2023-06-26T07:06:46;24.20;21.00
820;DHT22;392;48.838;2.322;2023-06-26T07:09:13;24.20;21.10
820;DHT22;392;48.838;2.322;2023-06-26T07:11:40;24.60;20.00
820;DHT22;392;48.838;2.322;2023-06-26T07:14:08;24.80;20.00
820;DHT22;392;48.838;2.322;2023-06-26T07:16:35;25.10;19.20
820;DHT22;392;48.838;2.322;2023-06-26T07:19:03;24.80;19.50
820;DHT22;392;48.838;2.322;2023-06-26T07:21:30;24.40;20.10
820;DHT22;392;48.838;2.322;2023-06-26T07:23:58;24.00;21.00
820;DHT22;392;48.838;2.322;2023-06-26T07:26:26;24.00;21.00
820;DHT22;392;48.838;2.322;2023-06-26T07:28:53;24.50;19.80
820;DHT22;392;48.838;2.322;2023-06-26T07:31:22;25.00;19.20
820;DHT22;392;48.838;2.322;2023-06-26T07:33:49;25.30;18.50
820;DHT22;392;48.838;2.322;2023-06-26T07:38:45;26.10;16.60
820;DHT22;392;48.838;2.322;2023-06-26T07:41:13;26.50;15.90
820;DHT22;392;48.838;2.322;2023-06-26T07:43:41;26.50;15.60
820;DHT22;392;48.838;2.322;2023-06-26T07:46:08;26.10;16.20
820;DHT22;392;48.838;2.322;2023-06-26T07:48:35;25.60;17.00
820;DHT22;392;48.838;2.322;2023-06-26T07:51:03;25.10;18.00
820;DHT22;392;48.838;2.322;2023-06-26T07:53:30;25.10;17.80
820;DHT22;392;48.838;2.322;2023-06-26T07:55:57;26.20;15.30
820;DHT22;392;48.838;2.322;2023-06-26T07:58:26;26.30;15.90
820;DHT22;392;48.838;2.322;2023-06-26T08:00:53;26.70;15.20
820;DHT22;392;48.838;2.322;2023-06-26T08:03:20;27.20;14.30
820;DHT22;392;48.838;2.322;2023-06-26T08:05:49;27.60;13.60
820;DHT22;392;48.838;2.322;2023-06-26T08:08:16;27.50;13.40
820;DHT22;392;48.838;2.322;2023-06-26T08:10:44;26.90;14.00
820;DHT22;392;48.838;2.322;2023-06-26T08:13:11;26.20;15.00
820;DHT22;392;48.838;2.322;2023-06-26T08:15:40;25.60;15.90
820;DHT22;392;48.838;2.322;2023-06-26T08:18:07;25.30;16.80
820;DHT22;392;48.838;2.322;2023-06-26T08:20:35;25.60;15.80
820;DHT22;392;48.838;2.322;2023-06-26T08:23:04;26.40;14.70
820;DHT22;392;48.838;2.322;2023-06-26T08:25:31;27.20;13.50
820;DHT22;392;48.838;2.322;2023-06-26T08:27:58;27.70;11.90
820;DHT22;392;48.838;2.322;2023-06-26T08:30:25;28.20;11.60
820;DHT22;392;48.838;2.322;2023-06-26T08:32:55;28.70;10.20
820;DHT22;392;48.838;2.322;2023-06-26T08:35:23;28.30;10.30
820;DHT22;392;48.838;2.322;2023-06-26T08:37:50;27.90;11.40
820;DHT22;392;48.838;2.322;2023-06-26T08:40:21;28.30;10.20
820;DHT22;392;48.838;2.322;2023-06-26T08:42:48;28.70;9.70
820;DHT22;392;48.838;2.322;2023-06-26T08:45:18;29.20;9.80
820;DHT22;392;48.838;2.322;2023-06-26T08:47:48;29.60;7.60
820;DHT22;392;48.838;2.322;2023-06-26T08:50:23;29.60;7.50
820;DHT22;392;48.838;2.322;2023-06-26T08:52:53;30.10;6.80
820;DHT22;392;48.838;2.322;2023-06-26T08:55:26;30.60;6.40
820;DHT22;392;48.838;2.322;2023-06-26T08:57:54;31.10;5.30
820;DHT22;392;48.838;2.322;2023-06-26T09:00:22;30.90;4.90
820;DHT22;392;48.838;2.322;2023-06-26T09:02:50;30.20;6.10
820;DHT22;392;48.838;2.322;2023-06-26T09:05:17;29.60;6.10
820;DHT22;392;48.838;2.322;2023-06-26T09:07:46;29.50;6.00
820;DHT22;392;48.838;2.322;2023-06-26T09:10:13;29.40;6.10
820;DHT22;392;48.838;2.322;2023-06-26T09:12:41;29.40;6.10
820;DHT22;392;48.838;2.322;2023-06-26T09:15:08;29.60;6.00
820;DHT22;392;48.838;2.322;2023-06-26T09:17:39;30.00;5.30
820;DHT22;392;48.838;2.322;2023-06-26T09:20:08;30.50;4.30
820;DHT22;392;48.838;2.322;2023-06-26T09:22:37;31.00;4.60
820;DHT22;392;48.838;2.322;2023-06-26T09:25:08;31.50;3.50
820;DHT22;392;48.838;2.322;2023-06-26T09:27:36;31.50;3.50
820;DHT22;392;48.838;2.322;2023-06-26T09:30:04;31.10;3.20
820;DHT22;392;48.838;2.322;2023-06-26T09:32:34;30.10;4.10
820;DHT22;392;48.838;2.322;2023-06-26T09:35:03;29.50;4.90
820;DHT22;392;48.838;2.322;2023-06-26T09:37:31;29.50;4.90
820;DHT22;392;48.838;2.322;2023-06-26T09:39:59;30.00;4.40
820;DHT22;392;48.838;2.322;2023-06-26T09:42:29;30.50;3.90
820;DHT22;392;48.838;2.322;2023-06-26T09:44:56;30.70;3.80
820;DHT22;392;48.838;2.322;2023-06-26T09:47:23;30.60;3.90
820;DHT22;392;48.838;2.322;2023-06-26T09:49:51;30.00;4.20
820;DHT22;392;48.838;2.322;2023-06-26T09:52:20;29.30;4.90
820;DHT22;392;48.838;2.322;2023-06-26T09:54:48;29.10;5.40
820;DHT22;392;48.838;2.322;2023-06-26T09:57:17;29.30;4.20
820;DHT22;392;48.838;2.322;2023-06-26T09:59:50;29.20;3.60
820;DHT22;392;48.838;2.322;2023-06-26T10:02:17;29.10;3.80
820;DHT22;392;48.838;2.322;2023-06-26T10:04:45;29.10;4.40
820;DHT22;392;48.838;2.322;2023-06-26T10:07:13;29.30;2.80
820;DHT22;392;48.838;2.322;2023-06-26T10:09:44;29.70;2.90
820;DHT22;392;48.838;2.322;2023-06-26T10:12:19;30.30;2.40
820;DHT22;392;48.838;2.322;2023-06-26T10:14:50;30.90;1.10
820;DHT22;392;48.838;2.322;2023-06-26T10:17:20;31.10;1.10
820;DHT22;392;48.838;2.322;2023-06-26T10:19:48;30.80;1.50
820;DHT22;392;48.838;2.322;2023-06-26T10:22:17;30.30;1.80
820;DHT22;392;48.838;2.322;2023-06-26T10:24:47;30.20;2.40
820;DHT22;392;48.838;2.322;2023-06-26T10:27:18;30.90;1.10
820;DHT22;392;48.838;2.322;2023-06-26T10:29:48;31.50;1.00
820;DHT22;392;48.838;2.322;2023-06-26T10:32:19;31.70;1.00
820;DHT22;392;48.838;2.322;2023-06-26T10:34:47;31.20;1.00
820;DHT22;392;48.838;2.322;2023-06-26T10:37:15;30.40;1.60
820;DHT22;392;48.838;2.322;2023-06-26T10:39:49;29.80;2.70
820;DHT22;392;48.838;2.322;2023-06-26T10:42:33;29.50;3.70
820;DHT22;392;48.838;2.322;2023-06-26T10:45:11;29.50;3.30
820;DHT22;392;48.838;2.322;2023-06-26T10:47:42;29.80;1.00
820;DHT22;392;48.838;2.322;2023-06-26T10:50:23;29.80;1.30
820;DHT22;392;48.838;2.322;2023-06-26T10:53:12;30.40;1.40
820;DHT22;392;48.838;2.322;2023-06-26T10:55:48;30.80;2.30
820;DHT22;392;48.838;2.322;2023-06-26T10:58:29;31.70;1.00
820;DHT22;392;48.838;2.322;2023-06-26T11:01:25;31.60;1.00
820;DHT22;392;48.838;2.322;2023-06-26T11:04:05;30.70;1.00
820;DHT22;392;48.838;2.322;2023-06-26T11:06:34;30.40;1.00
820;DHT22;392;48.838;2.322;2023-06-26T11:09:09;30.70;1.00
820;DHT22;392;48.838;2.322;2023-06-26T11:11:59;31.20;1.00
820;DHT22;392;48.838;2.322;2023-06-26T11:14:32;31.70;1.00
820;DHT22;392;48.838;2.322;2023-06-26T11:17:04;31.80;1.00
820;DHT22;392;48.838;2.322;2023-06-26T11:19:31;31.40;1.00
820;DHT22;392;48.838;2.322;2023-06-26T11:22:01;31.20;1.00
820;DHT22;392;48.838;2.322;2023-06-26T11:24:30;31.40;1.00
820;DHT22;392;48.838;2.322;2023-06-26T11:27:02;31.60;1.00
820;DHT22;392;48.838;2.322;2023-06-26T11:29:31;31.70;1.00
820;DHT22;392;48.838;2.322;2023-06-26T11:32:00;31.70;1.00
820;DHT22;392;48.838;2.322;2023-06-26T11:34:32;31.60;1.00
820;DHT22;392;48.838;2.322;2023-06-26T11:37:00;31.10;1.00
820;DHT22;392;48.838;2.322;2023-06-26T11:39:28;30.60;1.00
820;DHT22;392;48.838;2.322;2023-06-26T11:41:56;30.50;1.00
820;DHT22;392;48.838;2.322;2023-06-26T11:44:29;30.50;1.00
820;DHT22;392;48.838;2.322;2023-06-26T11:46:57;30.20;1.00
820;DHT22;392;48.838;2.322;2023-06-26T11:49:26;30.10;1.00
820;DHT22;392;48.838;2.322;2023-06-26T11:51:55;30.40;1.00
820;DHT22;392;48.838;2.322;2023-06-26T11:54:26;30.90;1.00
820;DHT22;392;48.838;2.322;2023-06-26T11:56:55;31.20;1.00
820;DHT22;392;48.838;2.322;2023-06-26T11:59:24;31.30;1.00
820;DHT22;392;48.838;2.322;2023-06-26T12:01:52;31.20;1.00
820;DHT22;392;48.838;2.322;2023-06-26T12:04:20;30.70;1.00
820;DHT22;392;48.838;2.322;2023-06-26T12:06:52;31.10;1.00
820;DHT22;392;48.838;2.322;2023-06-26T12:09:23;32.40;1.00
820;DHT22;392;48.838;2.322;2023-06-26T12:11:53;32.90;1.00
820;DHT22;392;48.838;2.322;2023-06-26T12:14:22;33.30;1.00
820;DHT22;392;48.838;2.322;2023-06-26T12:16:51;33.60;1.00
820;DHT22;392;48.838;2.322;2023-06-26T12:19:24;33.60;1.00
820;DHT22;392;48.838;2.322;2023-06-26T12:21:54;33.80;1.00
820;DHT22;392;48.838;2.322;2023-06-26T12:24:23;33.90;1.00
820;DHT22;392;48.838;2.322;2023-06-26T12:26:52;34.00;1.00
820;DHT22;392;48.838;2.322;2023-06-26T12:29:30;34.30;1.00
820;DHT22;392;48.838;2.322;2023-06-26T12:31:59;34.80;1.00
820;DHT22;392;48.838;2.322;2023-06-26T12:34:29;35.30;1.00
820;DHT22;392;48.838;2.322;2023-06-26T12:37:02;35.70;1.00
820;DHT22;392;48.838;2.322;2023-06-26T12:39:45;36.30;1.00
820;DHT22;392;48.838;2.322;2023-06-26T12:42:14;36.70;1.00
820;DHT22;392;48.838;2.322;2023-06-26T12:44:42;36.50;1.00
820;DHT22;392;48.838;2.322;2023-06-26T12:47:10;36.70;1.00
820;DHT22;392;48.838;2.322;2023-06-26T12:49:40;36.50;1.00
820;DHT22;392;48.838;2.322;2023-06-26T12:52:11;36.00;1.00
820;DHT22;392;48.838;2.322;2023-06-26T12:54:40;35.10;1.00
820;DHT22;392;48.838;2.322;2023-06-26T12:57:09;34.20;1.00
820;DHT22;392;48.838;2.322;2023-06-26T12:59:37;33.10;1.00
820;DHT22;392;48.838;2.322;2023-06-26T13:02:05;32.70;1.00
820;DHT22;392;48.838;2.322;2023-06-26T13:04:34;32.50;1.00
820;DHT22;392;48.838;2.322;2023-06-26T13:07:02;32.60;1.00
820;DHT22;392;48.838;2.322;2023-06-26T13:09:32;32.60;1.00
820;DHT22;392;48.838;2.322;2023-06-26T13:12:00;32.30;1.00
820;DHT22;392;48.838;2.322;2023-06-26T13:14:27;32.20;1.00
820;DHT22;392;48.838;2.322;2023-06-26T13:16:55;32.30;1.00
820;DHT22;392;48.838;2.322;2023-06-26T13:19:22;32.30;1.00
820;DHT22;392;48.838;2.322;2023-06-26T13:21:50;32.10;1.00
820;DHT22;392;48.838;2.322;2023-06-26T13:24:17;31.80;1.00
820;DHT22;392;48.838;2.322;2023-06-26T13:26:46;31.40;1.00
820;DHT22;392;48.838;2.322;2023-06-26T13:29:13;31.00;1.00
820;DHT22;392;48.838;2.322;2023-06-26T13:31:41;30.80;1.00
820;DHT22;392;48.838;2.322;2023-06-26T13:34:09;30.40;1.00
820;DHT22;392;48.838;2.322;2023-06-26T13:36:46;30.10;1.00
820;DHT22;392;48.838;2.322;2023-06-26T13:39:14;29.90;1.00
820;DHT22;392;48.838;2.322;2023-06-26T13:41:41;29.80;1.00
820;DHT22;392;48.838;2.322;2023-06-26T13:44:10;29.70;1.00
820;DHT22;392;48.838;2.322;2023-06-26T13:46:37;29.60;1.00
820;DHT22;392;48.838;2.322;2023-06-26T13:49:04;29.40;1.00
820;DHT22;392;48.838;2.322;2023-06-26T13:51:31;29.00;1.00
820;DHT22;392;48.838;2.322;2023-06-26T13:53:59;28.90;1.00
820;DHT22;392;48.838;2.322;2023-06-26T13:56:26;28.80;1.00
820;DHT22;392;48.838;2.322;2023-06-26T13:58:56;28.60;1.00
820;DHT22;392;48.838;2.322;2023-06-26T14:01:25;28.50;1.00
820;DHT22;392;48.838;2.322;2023-06-26T14:03:52;28.30;1.00
820;DHT22;392;48.838;2.322;2023-06-26T14:06:20;28.10;1.00
820;DHT22;392;48.838;2.322;2023-06-26T14:08:47;28.00;1.00
820;DHT22;392;48.838;2.322;2023-06-26T14:11:15;27.90;1.00
820;DHT22;392;48.838;2.322;2023-06-26T14:13:42;27.90;1.00
820;DHT22;392;48.838;2.322;2023-06-26T14:16:09;27.90;1.00
820;DHT22;392;48.838;2.322;2023-06-26T14:18:38;27.90;1.00
820;DHT22;392;48.838;2.322;2023-06-26T14:21:06;27.90;1.00
820;DHT22;392;48.838;2.322;2023-06-26T14:23:33;27.80;1.00
820;DHT22;392;48.838;2.322;2023-06-26T14:26:00;27.70;1.00
820;DHT22;392;48.838;2.322;2023-06-26T14:28:28;27.70;1.00
820;DHT22;392;48.838;2.322;2023-06-26T14:30:55;27.70;1.00
820;DHT22;392;48.838;2.322;2023-06-26T14:33:23;27.70;1.00
820;DHT22;392;48.838;2.322;2023-06-26T14:35:51;27.50;1.00
820;DHT22;392;48.838;2.322;2023-06-26T14:38:18;27.50;1.40
820;DHT22;392;48.838;2.322;2023-06-26T14:40:46;27.40;1.60
820;DHT22;392;48.838;2.322;2023-06-26T14:43:13;27.40;1.30
820;DHT22;392;48.838;2.322;2023-06-26T14:45:41;27.40;1.40
820;DHT22;392;48.838;2.322;2023-06-26T14:48:08;27.30;1.60
820;DHT22;392;48.838;2.322;2023-06-26T14:50:36;27.30;1.80
820;DHT22;392;48.838;2.322;2023-06-26T14:53:04;27.10;1.30
820;DHT22;392;48.838;2.322;2023-06-26T14:55:32;27.10;1.40
820;DHT22;392;48.838;2.322;2023-06-26T14:57:59;27.20;2.00
820;DHT22;392;48.838;2.322;2023-06-26T15:00:26;27.20;1.30
820;DHT22;392;48.838;2.322;2023-06-26T15:02:54;27.30;1.20
820;DHT22;392;48.838;2.322;2023-06-26T15:05:24;27.40;1.60
820;DHT22;392;48.838;2.322;2023-06-26T15:07:51;27.40;1.00
820;DHT22;392;48.838;2.322;2023-06-26T15:10:20;27.40;1.00
820;DHT22;392;48.838;2.322;2023-06-26T15:12:47;27.30;1.00
820;DHT22;392;48.838;2.322;2023-06-26T15:15:15;27.30;1.00
820;DHT22;392;48.838;2.322;2023-06-26T15:17:43;27.20;1.00
820;DHT22;392;48.838;2.322;2023-06-26T15:20:10;27.10;1.70
820;DHT22;392;48.838;2.322;2023-06-26T15:22:38;27.00;1.30
820;DHT22;392;48.838;2.322;2023-06-26T15:25:07;26.90;1.30
820;DHT22;392;48.838;2.322;2023-06-26T15:27:36;27.00;1.40
820;DHT22;392;48.838;2.322;2023-06-26T15:30:04;27.00;1.60
820;DHT22;392;48.838;2.322;2023-06-26T15:32:32;27.00;1.60
820;DHT22;392;48.838;2.322;2023-06-26T15:35:00;27.10;1.60
820;DHT22;392;48.838;2.322;2023-06-26T15:37:27;27.20;1.60
820;DHT22;392;48.838;2.322;2023-06-26T15:39:55;27.40;1.40
820;DHT22;392;48.838;2.322;2023-06-26T15:42:26;27.30;1.20
820;DHT22;392;48.838;2.322;2023-06-26T15:44:55;27.10;1.40
820;DHT22;392;48.838;2.322;2023-06-26T15:47:23;27.00;1.30
820;DHT22;392;48.838;2.322;2023-06-26T15:49:50;27.00;1.80
820;DHT22;392;48.838;2.322;2023-06-26T15:52:17;27.00;1.40
820;DHT22;392;48.838;2.322;2023-06-26T15:54:45;26.90;1.70
820;DHT22;392;48.838;2.322;2023-06-26T15:57:12;26.80;2.20
820;DHT22;392;48.838;2.322;2023-06-26T15:59:39;26.60;2.20
820;DHT22;392;48.838;2.322;2023-06-26T16:02:08;26.40;1.80
820;DHT22;392;48.838;2.322;2023-06-26T16:04:36;26.30;2.70
820;DHT22;392;48.838;2.322;2023-06-26T16:07:03;26.30;2.80
820;DHT22;392;48.838;2.322;2023-06-26T16:09:31;26.40;3.00
820;DHT22;392;48.838;2.322;2023-06-26T16:11:59;26.30;2.60
820;DHT22;392;48.838;2.322;2023-06-26T16:14:26;26.30;2.50
820;DHT22;392;48.838;2.322;2023-06-26T16:16:53;26.30;2.80
820;DHT22;392;48.838;2.322;2023-06-26T16:19:22;26.40;2.50
820;DHT22;392;48.838;2.322;2023-06-26T16:21:49;26.20;2.00
820;DHT22;392;48.838;2.322;2023-06-26T16:24:16;26.40;2.60
820;DHT22;392;48.838;2.322;2023-06-26T16:26:44;26.10;2.50
820;DHT22;392;48.838;2.322;2023-06-26T16:29:11;25.80;2.70
820;DHT22;392;48.838;2.322;2023-06-26T16:31:39;25.70;3.10
820;DHT22;392;48.838;2.322;2023-06-26T16:34:06;25.70;3.30
820;DHT22;392;48.838;2.322;2023-06-26T16:36:34;25.80;3.60
820;DHT22;392;48.838;2.322;2023-06-26T16:39:02;26.00;2.00
820;DHT22;392;48.838;2.322;2023-06-26T16:41:30;26.10;1.90
820;DHT22;392;48.838;2.322;2023-06-26T16:43:57;26.20;2.00
820;DHT22;392;48.838;2.322;2023-06-26T16:46:24;26.40;1.00
820;DHT22;392;48.838;2.322;2023-06-26T16:48:52;26.30;1.80
820;DHT22;392;48.838;2.322;2023-06-26T16:51:22;26.20;1.90
820;DHT22;392;48.838;2.322;2023-06-26T16:53:51;26.30;2.60
820;DHT22;392;48.838;2.322;2023-06-26T16:56:18;26.20;3.30
820;DHT22;392;48.838;2.322;2023-06-26T16:58:45;26.20;2.80
820;DHT22;392;48.838;2.322;2023-06-26T17:01:13;26.10;2.70
820;DHT22;392;48.838;2.322;2023-06-26T17:03:40;26.00;3.10
820;DHT22;392;48.838;2.322;2023-06-26T17:06:07;25.80;8.30
820;DHT22;392;48.838;2.322;2023-06-26T17:08:36;25.70;3.10